Time;durP1;ratioP1;P1;durP2;ratioP2;P2;SDS_P1;SDS_P2;PMS_P1;PMS_P2;Temp;Humidity;BMP_temperature;BMP_pressure;BME280_temperature;BME280_humidity;BME280_pressure;Samples;Min_cycle;Max_cycle;Signal;HPM_P1;HPM_P2
2021/06/20 00:00:14;;;;;;;15.83;14.23;;;19.30;99.90;;;;;;5048255;28;20263;-64
2021/06/20 00:02:44;;;;;;;16.13;14.73;;;19.30;99.90;;;;;;5050218;28;20250;-65
2021/06/20 00:05:16;;;;;;;17.27;15.57;;;19.30;99.90;;;;;;5050569;28;20232;-65
2021/06/20 00:07:45;;;;;;;17.80;15.93;;;19.20;99.90;;;;;;5049891;28;20253;-64
2021/06/20 00:10:16;;;;;;;16.97;15.27;;;19.20;99.90;;;;;;5064632;28;20247;-64
2021/06/20 00:12:44;;;;;;;17.73;16.10;;;19.20;99.90;;;;;;5049940;28;20777;-64
2021/06/20 00:15:14;;;;;;;16.33;14.87;;;19.10;99.90;;;;;;5049894;28;20237;-65
2021/06/20 00:17:43;;;;;;;17.73;16.03;;;19.10;99.90;;;;;;5048535;28;20643;-64
2021/06/20 00:20:14;;;;;;;16.90;15.13;;;19.20;99.90;;;;;;5049171;28;20245;-65
2021/06/20 00:22:44;;;;;;;16.10;14.50;;;19.20;99.90;;;;;;5049671;28;20528;-64
2021/06/20 00:25:13;;;;;;;17.67;16.07;;;19.20;99.90;;;;;;5049535;28;20266;-65
2021/06/20 00:27:43;;;;;;;17.00;15.50;;;19.20;99.90;;;;;;5049400;28;20766;-65
2021/06/20 00:30:13;;;;;;;17.07;15.47;;;19.10;99.90;;;;;;5049499;28;20230;-65
2021/06/20 00:32:42;;;;;;;16.90;15.20;;;19.10;99.90;;;;;;5050028;28;20651;-65
2021/06/20 00:35:11;;;;;;;15.90;14.50;;;19.00;99.90;;;;;;5049694;28;20235;-65
2021/06/20 00:37:40;;;;;;;17.53;15.93;;;19.00;99.90;;;;;;5048970;28;20601;-65
2021/06/20 00:40:10;;;;;;;19.53;17.70;;;19.00;99.90;;;;;;5049212;28;20246;-64
2021/06/20 00:42:38;;;;;;;16.93;15.33;;;19.00;99.90;;;;;;5049731;28;20242;-65
2021/06/20 00:45:08;;;;;;;19.67;17.87;;;19.00;99.90;;;;;;5049323;28;20273;-64
2021/06/20 00:47:36;;;;;;;15.77;14.23;;;19.10;99.90;;;;;;5049198;28;20593;-65
2021/06/20 00:50:07;;;;;;;15.90;14.47;;;19.10;99.90;;;;;;5049200;28;20715;-65
2021/06/20 00:52:35;;;;;;;16.73;15.13;;;19.10;99.90;;;;;;5049114;28;20344;-65
2021/06/20 00:55:05;;;;;;;17.40;15.80;;;19.10;99.90;;;;;;5049221;28;20235;-64
2021/06/20 00:57:35;;;;;;;15.73;14.23;;;19.10;99.90;;;;;;5048721;28;20258;-65
2021/06/20 01:00:05;;;;;;;14.63;13.33;;;19.10;99.90;;;;;;5048834;28;20229;-65
2021/06/20 01:02:34;;;;;;;15.87;14.37;;;19.10;99.90;;;;;;5049357;28;20241;-65
2021/06/20 01:05:02;;;;;;;15.83;14.27;;;19.10;99.90;;;;;;5049223;28;20613;-65
2021/06/20 01:07:30;;;;;;;18.43;16.63;;;19.10;99.90;;;;;;5048745;28;20539;-65
2021/06/20 01:09:58;;;;;;;19.40;17.60;;;19.10;99.90;;;;;;5048459;28;20234;-64
2021/06/20 01:12:26;;;;;;;15.77;14.20;;;19.10;99.90;;;;;;5048904;28;20300;-66
2021/06/20 01:14:56;;;;;;;14.77;13.37;;;19.10;99.90;;;;;;5049497;28;20606;-65
2021/06/20 01:17:24;;;;;;;17.97;16.17;;;19.10;99.90;;;;;;5048833;28;20515;-64
2021/06/20 01:19:52;;;;;;;17.37;15.23;;;19.10;99.90;;;;;;5048535;28;20241;-65
2021/06/20 01:22:24;;;;;;;19.53;17.63;;;19.10;99.90;;;;;;5053434;28;20244;-65
2021/06/20 01:24:54;;;;;;;16.60;14.93;;;19.10;99.90;;;;;;5051242;28;20278;-65
2021/06/20 01:27:25;;;;;;;16.20;14.70;;;19.10;99.90;;;;;;5068455;28;20287;-65
2021/06/20 01:29:53;;;;;;;17.40;15.70;;;19.10;99.90;;;;;;5059726;28;20243;-65
2021/06/20 01:32:21;;;;;;;16.00;14.47;;;19.20;99.90;;;;;;5048719;28;20319;-65
2021/06/20 01:34:49;;;;;;;16.37;14.83;;;19.10;99.90;;;;;;5047892;28;20237;-65
2021/06/20 01:37:18;;;;;;;17.33;15.63;;;19.10;99.90;;;;;;5047415;28;20240;-65
2021/06/20 01:39:48;;;;;;;16.47;14.87;;;19.10;99.90;;;;;;5047799;28;20256;-65
2021/06/20 01:42:18;;;;;;;16.43;14.83;;;19.20;99.90;;;;;;5048541;28;20261;-65
2021/06/20 01:44:47;;;;;;;17.43;15.73;;;19.20;99.90;;;;;;5048385;28;20242;-64
2021/06/20 01:47:16;;;;;;;19.10;17.50;;;19.20;99.90;;;;;;5047892;28;20606;-65
2021/06/20 01:49:44;;;;;;;19.90;18.17;;;19.10;99.90;;;;;;5047219;28;20246;-65
2021/06/20 01:52:12;;;;;;;20.73;18.93;;;19.10;99.90;;;;;;5048164;28;20567;-65
2021/06/20 01:54:50;;;;;;;21.60;19.47;;;19.10;99.90;;;;;;5048120;28;20249;-64
2021/06/20 01:57:22;;;;;;;19.40;17.40;;;19.10;99.90;;;;;;5047588;28;20248;-65
2021/06/20 01:59:51;;;;;;;20.47;18.23;;;19.10;99.90;;;;;;5047526;28;20315;-64
2021/06/20 02:02:20;;;;;;;18.73;16.83;;;19.10;99.90;;;;;;5048116;28;20677;-65
2021/06/20 02:04:49;;;;;;;22.37;20.37;;;19.10;99.90;;;;;;5048159;28;20242;-65
2021/06/20 02:07:18;;;;;;;20.03;18.10;;;19.10;99.90;;;;;;5047741;28;20241;-65
2021/06/20 02:09:46;;;;;;;23.13;20.83;;;19.10;99.90;;;;;;5046933;28;20272;-65
2021/06/20 02:12:18;;;;;;;20.17;18.17;;;19.00;99.90;;;;;;5048245;28;20338;-64
2021/06/20 02:14:53;;;;;;;;;;;19.10;99.90;;;;;;3262825;28;10022128;-65
2021/06/20 02:17:26;;;;;;;21.83;19.53;;;19.10;99.90;;;;;;2945573;28;10001835;-65
2021/06/20 02:19:57;;;;;;;19.43;17.60;;;19.10;99.90;;;;;;5033952;28;20480;-65
2021/06/20 02:22:26;;;;;;;21.03;19.13;;;19.10;99.90;;;;;;5035989;28;20246;-65
2021/06/20 02:24:55;;;;;;;20.37;18.23;;;19.10;99.90;;;;;;5047822;28;20597;-65
2021/06/20 02:27:23;;;;;;;20.03;18.20;;;19.10;99.90;;;;;;5047546;28;20257;-65
2021/06/20 02:29:54;;;;;;;18.60;16.80;;;19.10;99.90;;;;;;5047227;28;20287;-64
2021/06/20 02:32:23;;;;;;;17.00;15.30;;;19.10;99.90;;;;;;5048008;28;20241;-65
2021/06/20 02:34:52;;;;;;;19.60;17.60;;;19.20;99.90;;;;;;5047811;28;20244;-65
2021/06/20 02:37:21;;;;;;;18.20;16.53;;;19.20;99.90;;;;;;5046686;28;20248;-65
2021/06/20 02:39:51;;;;;;;17.80;16.20;;;19.30;99.90;;;;;;5046766;28;20686;-65
2021/06/20 02:42:20;;;;;;;17.90;16.00;;;19.30;99.90;;;;;;5047162;28;20239;-65
2021/06/20 02:44:49;;;;;;;18.00;16.17;;;19.30;99.90;;;;;;5047329;28;20245;-65
2021/06/20 02:47:19;;;;;;;15.87;14.23;;;19.30;99.90;;;;;;5047198;28;20716;-65
2021/06/20 02:49:47;;;;;;;16.27;14.67;;;19.30;99.90;;;;;;5046768;28;20240;-64
2021/06/20 02:52:16;;;;;;;16.03;14.43;;;19.40;99.90;;;;;;5047114;28;20268;-64
2021/06/20 02:54:51;;;;;;;15.77;14.27;;;19.40;99.90;;;;;;5047385;28;20251;-65
2021/06/20 02:57:21;;;;;;;15.37;13.83;;;19.40;99.90;;;;;;5046955;28;20307;-64
2021/06/20 02:59:50;;;;;;;15.47;14.07;;;19.50;99.90;;;;;;5046657;28;20257;-65
2021/06/20 03:02:20;;;;;;;15.90;14.53;;;19.50;99.90;;;;;;5047254;28;20644;-65
2021/06/20 03:04:49;;;;;;;15.30;13.77;;;19.60;99.90;;;;;;5047035;28;20325;-64
2021/06/20 03:07:17;;;;;;;15.40;14.00;;;19.60;99.90;;;;;;5047058;28;20242;-64
2021/06/20 03:09:45;;;;;;;16.03;14.57;;;19.60;99.90;;;;;;5046564;28;20253;-64
2021/06/20 03:12:14;;;;;;;15.30;13.90;;;19.70;99.90;;;;;;5047225;28;20650;-65
2021/06/20 03:14:44;;;;;;;16.73;14.93;;;19.70;99.90;;;;;;5047098;28;20250;-65
2021/06/20 03:17:14;;;;;;;16.73;15.03;;;19.80;99.90;;;;;;5046776;28;20650;-64
2021/06/20 03:19:45;;;;;;;16.37;14.93;;;19.80;99.90;;;;;;5046115;28;20242;-65
2021/06/20 03:22:14;;;;;;;15.20;13.70;;;19.90;99.90;;;;;;5047101;28;20300;-64
2021/06/20 03:24:44;;;;;;;16.33;14.80;;;19.90;99.90;;;;;;5046839;28;20660;-65
2021/06/20 03:27:12;;;;;;;17.03;15.57;;;20.00;99.90;;;;;;5046889;28;20246;-65
2021/06/20 03:29:41;;;;;;;16.27;14.67;;;20.00;99.90;;;;;;5045806;28;20296;-65
2021/06/20 03:32:09;;;;;;;15.43;14.10;;;20.00;99.90;;;;;;5046963;28;20239;-65
2021/06/20 03:34:37;;;;;;;15.10;13.90;;;20.00;99.90;;;;;;5045665;28;20329;-65
2021/06/20 03:37:07;;;;;;;17.60;16.00;;;20.10;99.90;;;;;;5046565;28;20770;-65
2021/06/20 03:39:36;;;;;;;16.53;15.03;;;20.10;99.90;;;;;;5045741;28;20234;-65
2021/06/20 03:42:04;;;;;;;16.13;14.70;;;20.00;99.90;;;;;;5046862;28;20633;-65
2021/06/20 03:44:33;;;;;;;16.70;15.13;;;20.00;99.90;;;;;;5046639;28;20300;-65
2021/06/20 03:47:01;;;;;;;16.73;15.23;;;20.00;99.90;;;;;;5046856;28;20242;-65
2021/06/20 03:49:29;;;;;;;16.97;15.20;;;20.00;99.90;;;;;;5045417;28;20238;-65
2021/06/20 03:51:57;;;;;;;16.13;14.70;;;20.00;99.90;;;;;;5048323;28;20583;-65
2021/06/20 03:54:27;;;;;;;15.37;13.97;;;20.00;99.90;;;;;;5050351;28;20707;-64
2021/06/20 03:56:55;;;;;;;16.43;15.03;;;20.00;99.90;;;;;;5050674;28;20247;-64
2021/06/20 03:59:25;;;;;;;16.23;14.73;;;20.00;99.90;;;;;;5064951;28;20315;-65
2021/06/20 04:01:54;;;;;;;16.43;14.93;;;20.10;99.90;;;;;;5050527;28;20242;-64
2021/06/20 04:04:23;;;;;;;17.90;16.20;;;20.00;99.90;;;;;;5050145;28;20238;-65
2021/06/20 04:06:52;;;;;;;17.50;15.80;;;20.00;99.90;;;;;;5050570;28;20228;-64
2021/06/20 04:09:20;;;;;;;16.60;15.10;;;20.00;99.90;;;;;;5049385;28;20945;-65
2021/06/20 04:11:50;;;;;;;18.23;16.60;;;20.10;99.90;;;;;;5050330;28;20705;-65
2021/06/20 04:14:18;;;;;;;17.43;15.73;;;20.10;99.90;;;;;;5050030;28;20242;-65
2021/06/20 04:16:46;;;;;;;15.67;14.23;;;20.10;99.90;;;;;;5050213;28;20736;-66
2021/06/20 04:19:14;;;;;;;16.40;14.80;;;20.10;99.90;;;;;;5049187;28;20307;-65
2021/06/20 04:21:42;;;;;;;15.30;14.00;;;20.10;99.90;;;;;;5049157;28;20738;-66
2021/06/20 04:24:10;;;;;;;17.30;15.03;;;20.10;99.90;;;;;;5050010;28;20740;-66
2021/06/20 04:26:41;;;;;;;17.80;16.20;;;20.10;99.90;;;;;;5049949;28;20237;-66
2021/06/20 04:29:10;;;;;;;19.97;18.07;;;20.10;99.90;;;;;;5049510;28;20725;-66
2021/06/20 04:31:38;;;;;;;17.27;15.70;;;20.20;99.90;;;;;;5049758;28;20541;-66
2021/06/20 04:34:07;;;;;;;17.93;16.20;;;20.20;99.90;;;;;;5049450;28;20243;-65
2021/06/20 04:36:35;;;;;;;19.33;17.47;;;20.20;99.90;;;;;;5049026;28;20289;-66
2021/06/20 04:39:06;;;;;;;18.83;17.07;;;20.20;99.90;;;;;;5053574;28;20269;-65
2021/06/20 04:41:35;;;;;;;19.30;17.40;;;20.20;99.90;;;;;;5047579;28;20733;-65
2021/06/20 04:44:05;;;;;;;17.80;16.13;;;20.20;99.90;;;;;;5047101;28;20229;-66
2021/06/20 04:46:37;;;;;;;16.17;14.77;;;20.10;99.90;;;;;;5047591;28;20235;-66
2021/06/20 04:49:07;;;;;;;16.90;15.20;;;20.20;99.90;;;;;;5048461;28;20232;-66
2021/06/20 04:51:39;;;;;;;17.03;15.20;;;20.10;99.90;;;;;;5049271;28;20249;-66
2021/06/20 04:54:09;;;;;;;15.63;14.03;;;20.10;99.90;;;;;;5049473;28;20235;-66
2021/06/20 04:56:37;;;;;;;16.83;15.07;;;20.20;99.90;;;;;;5048664;28;20320;-66
2021/06/20 04:59:06;;;;;;;15.47;14.03;;;20.20;99.90;;;;;;5047726;28;20313;-65
2021/06/20 05:01:37;;;;;;;15.70;13.80;;;20.10;99.90;;;;;;5049211;28;20238;-65
2021/06/20 05:04:06;;;;;;;14.07;12.77;;;20.20;99.90;;;;;;5063866;28;20226;-65
2021/06/20 05:06:35;;;;;;;13.60;12.30;;;20.10;99.90;;;;;;5049219;28;20239;-66
2021/06/20 05:09:04;;;;;;;13.57;12.17;;;20.10;99.90;;;;;;5048672;28;20238;-65
2021/06/20 05:11:32;;;;;;;12.77;11.47;;;20.10;99.90;;;;;;5048812;28;20835;-66
2021/06/20 05:14:00;;;;;;;12.17;11.03;;;20.10;99.90;;;;;;5049098;28;20235;-65
2021/06/20 05:16:28;;;;;;;11.03;9.93;;;20.10;99.90;;;;;;5049047;28;20235;-66
2021/06/20 05:18:58;;;;;;;11.50;9.60;;;20.10;99.90;;;;;;5048209;28;20263;-66
2021/06/20 05:21:33;;;;;;;10.37;8.47;;;20.10;99.90;;;;;;5048512;28;20277;-66
2021/06/20 05:24:02;;;;;;;9.17;7.80;;;20.00;99.90;;;;;;5048403;28;20234;-66
2021/06/20 05:26:30;;;;;;;8.93;7.63;;;20.10;99.90;;;;;;5048607;28;20277;-66
2021/06/20 05:28:59;;;;;;;7.77;6.70;;;20.10;99.90;;;;;;5048519;28;20239;-65
2021/06/20 05:31:27;;;;;;;9.63;7.17;;;20.10;99.90;;;;;;5048356;28;20246;-65
2021/06/20 05:33:55;;;;;;;7.43;6.43;;;20.00;99.90;;;;;;5049114;28;20357;-65
2021/06/20 05:36:24;;;;;;;7.50;6.50;;;20.00;99.90;;;;;;5048551;28;20591;-65
2021/06/20 05:38:52;;;;;;;7.20;6.03;;;20.00;99.90;;;;;;5047435;28;20294;-65
2021/06/20 05:41:23;;;;;;;7.00;6.17;;;20.00;99.90;;;;;;5028418;28;20242;-65
2021/06/20 05:43:53;;;;;;;6.83;5.83;;;20.00;99.90;;;;;;5029097;28;20290;-65
2021/06/20 05:46:22;;;;;;;7.27;5.93;;;19.90;99.90;;;;;;5027252;28;20242;-65
2021/06/20 05:48:51;;;;;;;8.53;5.67;;;19.90;99.90;;;;;;5026503;28;20238;-65
2021/06/20 05:51:19;;;;;;;7.53;5.80;;;19.90;99.90;;;;;;5043969;28;20238;-65
2021/06/20 05:53:48;;;;;;;8.33;5.00;;;19.90;99.90;;;;;;5043489;28;20312;-65
2021/06/20 05:56:16;;;;;;;5.40;4.43;;;19.90;99.90;;;;;;5044893;28;20588;-65
2021/06/20 05:58:45;;;;;;;7.10;4.90;;;20.00;99.90;;;;;;5044350;28;20246;-65
2021/06/20 06:01:13;;;;;;;7.77;5.07;;;20.00;99.90;;;;;;5060693;28;20289;-65
2021/06/20 06:03:41;;;;;;;6.33;4.70;;;20.00;99.90;;;;;;5046303;28;20230;-65
2021/06/20 06:06:09;;;;;;;7.23;4.93;;;20.00;99.90;;;;;;5046635;28;20254;-65
2021/06/20 06:08:37;;;;;;;6.47;4.87;;;20.00;99.90;;;;;;5046274;28;20653;-65
2021/06/20 06:11:06;;;;;;;6.77;4.17;;;20.00;99.90;;;;;;5045759;28;20235;-65
2021/06/20 06:13:35;;;;;;;6.10;4.03;;;20.00;99.90;;;;;;5045947;28;20246;-66
2021/06/20 06:16:03;;;;;;;6.30;4.00;;;20.00;99.90;;;;;;5044811;28;20232;-65
2021/06/20 06:18:31;;;;;;;8.47;4.33;;;20.00;99.90;;;;;;5045935;28;20274;-65
2021/06/20 06:20:59;;;;;;;5.47;4.20;;;20.00;99.90;;;;;;5045755;28;20243;-65
2021/06/20 06:23:28;;;;;;;6.67;3.70;;;20.00;99.90;;;;;;5046552;28;20711;-65
2021/06/20 06:25:56;;;;;;;5.93;4.20;;;20.00;99.90;;;;;;5046751;28;20763;-65
2021/06/20 06:28:25;;;;;;;6.10;3.53;;;20.00;99.90;;;;;;5046222;28;20260;-65
2021/06/20 06:30:53;;;;;;;7.03;3.30;;;20.00;99.90;;;;;;5045598;28;20558;-66
2021/06/20 06:33:22;;;;;;;5.37;3.40;;;19.90;99.90;;;;;;5047575;28;20305;-66
2021/06/20 06:35:50;;;;;;;5.30;3.50;;;20.00;99.90;;;;;;5043390;28;20258;-65
2021/06/20 06:38:20;;;;;;;4.30;3.50;;;20.00;99.90;;;;;;5047102;28;20253;-65
2021/06/20 06:40:50;;;;;;;6.77;3.30;;;20.10;99.90;;;;;;5046978;28;20234;-66
2021/06/20 06:43:18;;;;;;;3.67;3.17;;;20.20;99.90;;;;;;5047611;28;20268;-65
2021/06/20 06:45:48;;;;;;;5.73;3.67;;;20.20;99.90;;;;;;5046788;28;20656;-65
2021/06/20 06:48:16;;;;;;;5.17;3.23;;;20.20;99.90;;;;;;5046843;28;20246;-65
2021/06/20 06:50:45;;;;;;;7.47;3.47;;;20.40;99.90;;;;;;5045579;28;20239;-65
2021/06/20 06:53:13;;;;;;;6.10;3.30;;;20.50;99.90;;;;;;5046757;28;20280;-65
2021/06/20 06:55:41;;;;;;;6.17;3.30;;;20.60;99.90;;;;;;5046236;28;20234;-65
2021/06/20 06:58:09;;;;;;;6.40;3.67;;;20.70;99.90;;;;;;5045825;28;20243;-65
2021/06/20 07:00:37;;;;;;;4.50;3.07;;;20.80;99.90;;;;;;5045275;28;20239;-65
2021/06/20 07:03:07;;;;;;;3.27;2.90;;;21.00;99.90;;;;;;5047096;28;20231;-64
2021/06/20 07:05:35;;;;;;;3.70;2.83;;;21.20;99.90;;;;;;5046764;28;20235;-65
2021/06/20 07:08:03;;;;;;;5.83;3.10;;;21.60;99.90;;;;;;5046857;28;20602;-64
2021/06/20 07:10:31;;;;;;;6.37;3.00;;;21.80;99.90;;;;;;5045405;28;20760;-64
2021/06/20 07:13:00;;;;;;;5.43;2.77;;;21.90;99.90;;;;;;5047553;28;20246;-64
2021/06/20 07:15:30;;;;;;;4.60;3.20;;;22.10;99.90;;;;;;5046915;28;20455;-64
2021/06/20 07:17:59;;;;;;;4.73;3.20;;;22.30;99.90;;;;;;5046833;28;20239;-64
2021/06/20 07:20:29;;;;;;;4.70;2.90;;;22.70;99.90;;;;;;5045461;28;20326;-64
2021/06/20 07:22:57;;;;;;;4.93;2.90;;;23.20;99.90;;;;;;5047343;28;20259;-64
2021/06/20 07:25:25;;;;;;;9.27;3.50;;;23.40;99.90;;;;;;5047289;28;20243;-64
2021/06/20 07:27:53;;;;;;;5.30;3.10;;;23.60;99.90;;;;;;5050160;28;20262;-64
2021/06/20 07:30:22;;;;;;;6.50;2.97;;;23.80;99.90;;;;;;5048952;28;20229;-64
2021/06/20 07:32:51;;;;;;;4.83;3.30;;;24.10;99.90;;;;;;5055104;28;20236;-64
2021/06/20 07:35:19;;;;;;;5.23;3.17;;;24.30;99.90;;;;;;5049722;28;20266;-64
2021/06/20 07:37:49;;;;;;;7.07;3.47;;;24.50;99.90;;;;;;5048586;28;20236;-64
2021/06/20 07:40:17;;;;;;;7.07;3.33;;;24.60;99.90;;;;;;5046342;28;20235;-64
2021/06/20 07:42:46;;;;;;;7.10;3.53;;;24.80;99.90;;;;;;5049278;28;20250;-65
2021/06/20 07:45:16;;;;;;;6.97;3.57;;;25.00;99.90;;;;;;5049328;28;20236;-64
2021/06/20 07:47:45;;;;;;;8.93;3.67;;;25.00;99.90;;;;;;5062517;28;20258;-64
2021/06/20 07:50:15;;;;;;;6.63;3.40;;;24.80;99.90;;;;;;5056802;28;20244;-64
2021/06/20 07:52:43;;;;;;;6.93;3.23;;;24.50;99.90;;;;;;5048887;28;20244;-64
2021/06/20 07:55:14;;;;;;;9.00;3.57;;;24.20;99.90;;;;;;5049215;28;20607;-64
2021/06/20 07:57:42;;;;;;;5.43;3.43;;;24.10;99.90;;;;;;5048967;28;20232;-64
2021/06/20 08:00:12;;;;;;;4.73;3.33;;;24.10;99.90;;;;;;5048104;28;20584;-64
2021/06/20 08:02:41;;;;;;;6.63;3.60;;;24.00;99.90;;;;;;5048458;28;20255;-64
2021/06/20 08:05:10;;;;;;;6.40;3.47;;;23.80;99.90;;;;;;5048976;28;20235;-63
2021/06/20 08:07:39;;;;;;;7.90;4.03;;;23.70;99.90;;;;;;5047657;28;20396;-64
2021/06/20 08:10:08;;;;;;;5.30;3.70;;;23.70;99.90;;;;;;5047756;28;20270;-64
2021/06/20 08:12:42;;;;;;;9.77;3.97;;;23.80;99.90;;;;;;5049004;28;20244;-64
2021/06/20 08:15:10;;;;;;;5.67;3.70;;;23.90;99.90;;;;;;5048037;28;20249;-65
2021/06/20 08:17:39;;;;;;;6.07;3.30;;;24.00;99.90;;;;;;5048482;28;20644;-64
2021/06/20 08:20:12;;;;;;;7.17;3.90;;;24.10;99.90;;;;;;5048679;28;20240;-64
2021/06/20 08:22:41;;;;;;;5.77;4.10;;;24.10;99.90;;;;;;5049177;28;20266;-65
2021/06/20 08:25:11;;;;;;;6.17;4.23;;;24.10;99.90;;;;;;5049159;28;20236;-64
2021/06/20 08:27:41;;;;;;;6.00;4.07;;;24.10;99.90;;;;;;5049479;28;20693;-64
2021/06/20 08:30:11;;;;;;;8.57;4.37;;;24.10;99.90;;;;;;5049202;28;20236;-64
2021/06/20 08:32:40;;;;;;;7.67;4.50;;;24.30;99.90;;;;;;5050126;28;20330;-64
2021/06/20 08:35:09;;;;;;;10.17;4.10;;;24.40;99.90;;;;;;5049690;28;20536;-64
2021/06/20 08:37:40;;;;;;;7.83;4.43;;;24.10;99.90;;;;;;5048618;28;20241;-65
2021/06/20 08:40:08;;;;;;;6.50;4.17;;;24.00;99.90;;;;;;5048094;28;20243;-64
2021/06/20 08:42:36;;;;;;;7.93;4.73;;;23.80;99.90;;;;;;5049819;28;20274;-64
2021/06/20 08:45:07;;;;;;;8.27;4.47;;;23.60;99.90;;;;;;5049441;28;20326;-65
2021/06/20 08:47:35;;;;;;;7.57;4.87;;;23.60;99.90;;;;;;5049177;28;20734;-64
2021/06/20 08:50:05;;;;;;;7.63;4.90;;;23.50;99.90;;;;;;5048698;28;20287;-64
2021/06/20 08:52:33;;;;;;;8.47;4.93;;;23.50;99.90;;;;;;5048842;28;20251;-64
2021/06/20 08:55:02;;;;;;;8.83;5.30;;;23.30;99.90;;;;;;5048954;28;20263;-64
2021/06/20 08:57:31;;;;;;;8.57;5.10;;;23.40;99.90;;;;;;5048682;28;20232;-64
2021/06/20 09:00:00;;;;;;;5.47;4.20;;;23.40;99.90;;;;;;5048292;28;20235;-65
2021/06/20 09:02:30;;;;;;;9.33;4.80;;;23.40;99.90;;;;;;5049022;28;20228;-63
2021/06/20 09:04:59;;;;;;;6.83;4.47;;;23.50;99.90;;;;;;5049145;28;20366;-64
2021/06/20 09:07:33;;;;;;;10.87;4.63;;;23.50;99.90;;;;;;5049295;28;20667;-64
2021/06/20 09:10:13;;;;;;;10.33;5.30;;;23.70;99.90;;;;;;5047908;28;20235;-64
2021/06/20 09:12:47;;;;;;;12.23;5.80;;;23.80;99.90;;;;;;5049236;28;20742;-64
2021/06/20 09:15:17;;;;;;;8.07;4.80;;;23.70;99.90;;;;;;5048538;28;20250;-64
2021/06/20 09:17:52;;;;;;;7.67;5.83;;;23.70;99.90;;;;;;5049109;28;20707;-65
2021/06/20 09:20:31;;;;;;;8.80;6.07;;;23.70;99.90;;;;;;5048016;28;20264;-64
2021/06/20 09:23:01;;;;;;;8.73;5.83;;;24.00;99.90;;;;;;5045705;28;20616;-63
2021/06/20 09:25:30;;;;;;;8.70;6.07;;;24.50;99.90;;;;;;5048854;28;20244;-64
2021/06/20 09:28:00;;;;;;;9.07;6.40;;;25.00;99.90;;;;;;5047904;28;20238;-64
2021/06/20 09:30:35;;;;;;;9.60;6.37;;;25.40;99.90;;;;;;5048000;28;20241;-64
2021/06/20 09:33:06;;;;;;;9.07;6.10;;;26.00;99.90;;;;;;5048779;28;20237;-63
2021/06/20 09:35:42;;;;;;;8.67;6.30;;;26.40;99.90;;;;;;5039019;28;20298;-63
2021/06/20 09:38:19;;;;;;;6.50;5.87;;;26.50;99.90;;;;;;5060676;28;20231;-64
2021/06/20 09:40:48;;;;;;;7.37;6.40;;;26.60;99.90;;;;;;5047198;28;20263;-64
2021/06/20 09:43:19;;;;;;;8.20;6.23;;;26.80;99.90;;;;;;5048390;28;20242;-64
2021/06/20 09:45:49;;;;;;;9.67;6.77;;;26.60;99.90;;;;;;5060361;28;20250;-64
2021/06/20 09:48:27;;;;;;;8.00;7.17;;;26.30;99.90;;;;;;5048017;28;20230;-63
2021/06/20 09:50:55;;;;;;;9.80;6.50;;;26.00;99.90;;;;;;5047088;28;20237;-64
2021/06/20 09:53:35;;;;;;;9.83;6.43;;;26.00;99.90;;;;;;5045595;28;20691;-64
2021/06/20 09:56:11;;;;;;;8.17;6.83;;;26.10;99.90;;;;;;5061378;28;20320;-63
2021/06/20 09:58:43;;;;;;;8.67;6.63;;;26.00;99.90;;;;;;5046226;28;20275;-63
2021/06/20 10:01:11;;;;;;;8.77;7.00;;;25.90;99.90;;;;;;5045984;28;20325;-64
2021/06/20 10:03:43;;;;;;;11.30;8.07;;;25.50;99.90;;;;;;5046736;28;20246;-64
2021/06/20 10:06:13;;;;;;;7.50;6.83;;;25.40;99.90;;;;;;5046823;28;20771;-64
2021/06/20 10:08:42;;;;;;;11.47;8.37;;;25.60;99.90;;;;;;5045454;28;20244;-64
2021/06/20 10:11:12;;;;;;;8.87;7.97;;;25.50;99.90;;;;;;5045646;28;20249;-63
2021/06/20 10:13:40;;;;;;;8.40;7.50;;;25.60;99.90;;;;;;5046587;28;20273;-64
2021/06/20 10:16:17;;;;;;;8.80;7.80;;;25.80;99.90;;;;;;5046320;28;20287;-64
2021/06/20 10:18:53;;;;;;;9.90;8.90;;;25.60;99.90;;;;;;5045594;28;20645;-63
2021/06/20 10:21:36;;;;;;;11.30;8.73;;;25.90;99.90;;;;;;5035213;28;20237;-64
2021/06/20 10:24:07;;;;;;;11.13;8.40;;;26.10;99.90;;;;;;5045847;28;20237;-64
2021/06/20 10:26:36;;;;;;;10.37;7.90;;;26.60;99.90;;;;;;5046343;28;20325;-64
2021/06/20 10:29:19;;;;;;;9.60;8.37;;;27.40;99.90;;;;;;5045929;28;20775;-64
2021/06/20 10:31:48;;;;;;;9.67;8.67;;;27.90;99.90;;;;;;5046412;28;20289;-64
2021/06/20 10:34:23;;;;;;;9.33;8.43;;;27.70;99.90;;;;;;5046273;28;20234;-64
2021/06/20 10:36:53;;;;;;;9.77;8.47;;;27.50;99.90;;;;;;5046272;28;20265;-64
2021/06/20 10:39:22;;;;;;;9.83;8.83;;;27.40;99.90;;;;;;5060552;28;20762;-64
2021/06/20 10:41:50;;;;;;;10.80;9.80;;;27.10;99.90;;;;;;5045805;28;20314;-64
2021/06/20 10:44:18;;;;;;;11.10;10.00;;;26.80;99.90;;;;;;5047434;28;20234;-64
2021/06/20 10:46:55;;;;;;;10.07;9.03;;;26.90;99.90;;;;;;5047653;28;20236;-64
2021/06/20 10:49:25;;;;;;;12.13;10.20;;;26.90;99.90;;;;;;5046342;28;20527;-64
2021/06/20 10:51:53;;;;;;;11.33;10.00;;;26.80;99.90;;;;;;5032184;28;20239;-64
2021/06/20 10:54:28;;;;;;;10.93;9.80;;;26.60;99.90;;;;;;5026985;28;20243;-63
2021/06/20 10:56:58;;;;;;;11.17;8.60;;;26.80;99.90;;;;;;5041046;28;20701;-63
2021/06/20 10:59:27;;;;;;;10.30;9.30;;;27.40;99.90;;;;;;5046058;28;20336;-64
2021/06/20 11:01:55;;;;;;;10.50;9.47;;;27.60;99.90;;;;;;5037962;28;20588;-64
2021/06/20 11:04:25;;;;;;;9.70;8.77;;;27.80;99.90;;;;;;5031076;28;20236;-64
2021/06/20 11:06:55;;;;;;;11.40;10.20;;;28.30;99.90;;;;;;5046330;28;20243;-64
2021/06/20 11:09:24;;;;;;;11.07;9.97;;;28.40;99.90;;;;;;5030795;28;20331;-63
2021/06/20 11:11:57;;;;;;;10.93;9.43;;;28.60;99.90;;;;;;5028725;28;20229;-64
2021/06/20 11:14:25;;;;;;;9.90;8.90;;;28.60;99.90;;;;;;5031231;28;20254;-64
2021/06/20 11:16:54;;;;;;;9.60;8.60;;;29.10;99.90;;;;;;5031454;28;20258;-63
2021/06/20 11:19:24;;;;;;;8.30;7.30;;;29.10;99.90;;;;;;5030900;28;20255;-64
2021/06/20 11:21:56;;;;;;;8.30;7.40;;;29.20;99.90;;;;;;5029626;28;20235;-64
2021/06/20 11:24:27;;;;;;;10.23;7.53;;;29.40;99.90;;;;;;5030691;28;20250;-64
2021/06/20 11:26:58;;;;;;;9.63;8.27;;;29.50;99.90;;;;;;5030943;28;20245;-64
2021/06/20 11:29:36;;;;;;;8.13;7.43;;;29.30;99.90;;;;;;5029275;28;20789;-64
2021/06/20 11:32:05;;;;;;;10.00;9.00;;;28.80;99.90;;;;;;5027221;28;20282;-64
2021/06/20 11:34:34;;;;;;;9.37;8.07;;;28.50;99.90;;;;;;5030476;28;20275;-64
2021/06/20 11:37:15;;;;;;;9.07;8.17;;;28.20;99.90;;;;;;5031102;28;20237;-64
2021/06/20 11:39:46;;;;;;;8.07;7.23;;;28.30;99.90;;;;;;5029646;28;20634;-64
2021/06/20 11:42:26;;;;;;;8.20;7.50;;;28.20;99.90;;;;;;5019168;28;20296;-64
2021/06/20 11:44:57;;;;;;;8.33;7.57;;;28.50;99.90;;;;;;5015568;28;20358;-64
2021/06/20 11:47:32;;;;;;;9.20;8.30;;;28.70;99.90;;;;;;5029147;28;20301;-64
2021/06/20 11:50:15;;;;;;;9.57;8.30;;;28.30;99.90;;;;;;5031091;28;20238;-64
2021/06/20 11:52:47;;;;;;;8.90;8.10;;;28.20;99.90;;;;;;5028983;28;20759;-64
2021/06/20 11:55:19;;;;;;;8.63;7.83;;;28.70;99.90;;;;;;5032340;28;20250;-64
2021/06/20 11:57:49;;;;;;;9.03;7.60;;;29.00;99.90;;;;;;5031411;28;20545;-64
2021/06/20 12:00:19;;;;;;;8.30;7.53;;;28.60;99.90;;;;;;5030205;28;20247;-64
2021/06/20 12:02:59;;;;;;;7.57;6.57;;;28.40;99.90;;;;;;5040832;28;20534;-64
2021/06/20 12:05:28;;;;;;;8.03;7.13;;;28.50;99.90;;;;;;5031060;28;20262;-64
2021/06/20 12:08:00;;;;;;;7.83;6.13;;;28.80;99.90;;;;;;5031352;28;20324;-64
2021/06/20 12:10:29;;;;;;;7.00;6.40;;;29.00;99.90;;;;;;5029518;28;20258;-64
2021/06/20 12:13:04;;;;;;;8.23;6.70;;;29.00;99.90;;;;;;5028807;28;20243;-64
2021/06/20 12:15:36;;;;;;;8.00;7.20;;;29.10;99.90;;;;;;5035820;28;20519;-64
2021/06/20 12:18:05;;;;;;;8.40;7.60;;;28.80;99.90;;;;;;5034919;28;20277;-64
2021/06/20 12:20:36;;;;;;;9.37;8.47;;;28.50;99.90;;;;;;5033429;28;20243;-64
2021/06/20 12:23:06;;;;;;;8.23;7.40;;;28.20;99.90;;;;;;5031705;28;20890;-64
2021/06/20 12:25:44;;;;;;;8.00;7.30;;;28.10;99.90;;;;;;5035342;28;20258;-64
2021/06/20 12:28:13;;;;;;;10.25;9.35;;;28.30;99.90;;;;;;5034192;28;20600;-73
2021/06/20 12:30:42;;;;;;;10.17;9.03;;;28.30;99.90;;;;;;5033845;28;20730;-64
2021/06/20 12:33:11;;;;;;;9.43;8.50;;;28.20;99.90;;;;;;5030528;28;20234;-64
2021/06/20 12:35:40;;;;;;;10.83;9.43;;;27.80;99.90;;;;;;5034200;28;20751;-69
2021/06/20 12:38:19;;;;;;;10.33;9.33;;;27.40;99.90;;;;;;5034915;28;20243;-67
2021/06/20 12:40:48;;;;;;;8.60;7.80;;;27.30;99.90;;;;;;5034133;28;20274;-66
2021/06/20 12:43:19;;;;;;;10.47;9.57;;;27.60;99.90;;;;;;5031823;28;20259;-64
2021/06/20 12:45:58;;;;;;;11.97;8.80;;;27.70;99.90;;;;;;5034440;28;20800;-66
2021/06/20 12:48:27;;;;;;;9.93;8.93;;;27.80;99.90;;;;;;5035455;28;20252;-63
2021/06/20 12:50:56;;;;;;;8.80;7.90;;;27.90;99.90;;;;;;5033780;28;20993;-63